Time;durP1;ratioP1;P1;durP2;ratioP2;P2;SDS_P1;SDS_P2;PMS_P1;PMS_P2;Temp;Humidity;BMP_temperature;BMP_pressure;BME280_temperature;BME280_humidity;BME280_pressure;Samples;Min_cycle;Max_cycle;Signal;HPM_P1;HPM_P2
2022/04/06 00:01:44;;;;;;;25.27;17.80;;;10.00;99.90;;;;;;4992503;28;20451;-70
2022/04/06 00:04:10;;;;;;;32.10;18.83;;;9.90;99.90;;;;;;4990515;28;20030;-71
2022/04/06 00:06:35;;;;;;;36.33;18.13;;;9.90;99.90;;;;;;4991928;28;20038;-71
2022/04/06 00:09:02;;;;;;;26.60;17.00;;;9.40;99.90;;;;;;4992926;28;20046;-70
2022/04/06 00:11:27;;;;;;;38.93;18.27;;;10.10;99.90;;;;;;4992556;28;20030;-71
2022/04/06 00:13:53;;;;;;;32.77;16.87;;;9.90;99.90;;;;;;4992687;28;20030;-71
2022/04/06 00:16:19;;;;;;;31.60;18.50;;;9.50;99.90;;;;;;4993100;28;20038;-71
2022/04/06 00:18:45;;;;;;;28.33;17.73;;;9.90;99.90;;;;;;4990474;28;20145;-71
2022/04/06 00:21:11;;;;;;;29.17;16.80;;;9.90;99.90;;;;;;4992266;28;20113;-71
2022/04/06 00:23:37;;;;;;;30.13;15.57;;;;;;;;;;4992298;28;20045;-71
2022/04/06 00:26:03;;;;;;;34.07;16.10;;;9.50;99.90;;;;;;4992559;28;20563;-71
2022/04/06 00:28:29;;;;;;;26.83;15.50;;;9.90;99.90;;;;;;4992312;28;20022;-71
2022/04/06 00:30:54;;;;;;;26.67;16.00;;;9.80;99.90;;;;;;4992497;28;20032;-71
2022/04/06 00:33:20;;;;;;;33.30;16.23;;;9.90;99.90;;;;;;4971086;28;20410;-71
2022/04/06 00:35:46;;;;;;;25.60;14.60;;;10.30;99.90;;;;;;4987696;28;20129;-71
2022/04/06 00:38:11;;;;;;;35.80;16.90;;;9.60;99.90;;;;;;4991300;28;20026;-71
2022/04/06 00:40:39;;;;;;;34.33;17.27;;;9.80;99.90;;;;;;4991821;28;20075;-71
2022/04/06 00:43:10;;;;;;;27.33;15.53;;;9.80;99.90;;;;;;4992554;28;20382;-71
2022/04/06 00:45:38;;;;;;;35.80;14.83;;;10.10;99.90;;;;;;4991627;28;20041;-71
2022/04/06 00:48:04;;;;;;;32.03;15.80;;;9.50;99.90;;;;;;4987778;28;20077;-71
2022/04/06 00:50:31;;;;;;;26.77;15.20;;;9.90;99.90;;;;;;4991408;28;20450;-71
2022/04/06 00:52:57;;;;;;;27.07;15.27;;;9.80;99.90;;;;;;4992115;28;20023;-70
2022/04/06 00:55:29;;;;;;;30.07;15.33;;;9.90;99.90;;;;;;4992054;28;20062;-71
2022/04/06 00:57:55;;;;;;;28.53;16.57;;;;;;;;;;4982903;28;20039;-71
2022/04/06 01:00:21;;;;;;;23.67;15.77;;;9.80;99.90;;;;;;4991924;28;20129;-71
2022/04/06 01:02:47;;;;;;;26.93;16.33;;;9.90;99.90;;;;;;4991466;28;20035;-71
2022/04/06 01:05:13;;;;;;;35.57;16.57;;;10.00;99.90;;;;;;4991489;28;20066;-70
2022/04/06 01:07:40;;;;;;;32.40;17.53;;;9.90;99.90;;;;;;4991364;28;20058;-70
2022/04/06 01:10:06;;;;;;;30.87;16.27;;;9.80;99.90;;;;;;4991979;28;20030;-71
2022/04/06 01:12:38;;;;;;;29.90;17.47;;;9.90;99.90;;;;;;4986442;28;20484;-71
2022/04/06 01:15:04;;;;;;;42.57;19.13;;;;;;;;;;4991729;28;20026;-71
2022/04/06 01:17:34;;;;;;;30.07;16.73;;;9.80;99.90;;;;;;4991382;28;20065;-71
2022/04/06 01:20:00;;;;;;;29.93;17.33;;;9.90;99.90;;;;;;4989649;28;20123;-70
2022/04/06 01:22:26;;;;;;;39.03;17.33;;;9.90;99.90;;;;;;4991385;28;20050;-71
2022/04/06 01:24:52;;;;;;;31.53;15.50;;;10.10;99.90;;;;;;4991165;28;20058;-70
2022/04/06 01:27:18;;;;;;;43.43;17.53;;;9.80;99.90;;;;;;4989148;28;20038;-71
2022/04/06 01:29:45;;;;;;;33.63;15.87;;;9.70;99.90;;;;;;4989941;28;20096;-70
2022/04/06 01:32:17;;;;;;;30.83;15.97;;;9.80;99.90;;;;;;4991389;28;20033;-70
2022/04/06 01:34:44;;;;;;;22.77;14.37;;;9.80;99.90;;;;;;4990371;28;20030;-70
2022/04/06 01:37:11;;;;;;;23.80;12.80;;;9.80;99.90;;;;;;4990428;28;20026;-71
2022/04/06 01:39:39;;;;;;;29.53;14.10;;;9.80;99.90;;;;;;4990782;28;20023;-70
2022/04/06 01:42:06;;;;;;;29.93;15.57;;;9.40;99.90;;;;;;4990192;28;20027;-70
2022/04/06 01:44:32;;;;;;;28.33;14.57;;;9.50;99.90;;;;;;4989652;28;20034;-70
2022/04/06 01:46:59;;;;;;;28.87;12.97;;;9.80;99.90;;;;;;4990682;28;20030;-70
2022/04/06 01:52:12;;;;;;;24.17;13.43;;;9.90;99.90;;;;;;4991276;28;20037;-71
2022/04/06 01:54:38;;;;;;;26.60;13.30;;;9.90;99.90;;;;;;4990484;28;20096;-70
2022/04/06 01:57:04;;;;;;;27.23;12.13;;;9.80;99.90;;;;;;5005800;28;20026;-70
2022/04/06 01:59:30;;;;;;;28.57;12.20;;;9.80;99.90;;;;;;4989715;28;20109;-71
2022/04/06 02:01:56;;;;;;;32.83;13.00;;;9.70;99.90;;;;;;4989982;28;20114;-70
2022/04/06 02:04:21;;;;;;;33.43;12.33;;;10.00;99.90;;;;;;4986537;28;20030;-71
2022/04/06 02:06:47;;;;;;;18.10;10.83;;;9.80;99.90;;;;;;4990310;28;20046;-71
2022/04/06 02:09:13;;;;;;;20.57;11.23;;;;;;;;;;4990681;28;20333;-71
2022/04/06 02:11:41;;;;;;;22.43;11.00;;;9.90;99.90;;;;;;4990229;28;20026;-71
2022/04/06 02:14:07;;;;;;;22.43;12.03;;;9.80;99.90;;;;;;4990764;28;20024;-71
2022/04/06 02:16:33;;;;;;;22.23;10.70;;;9.70;99.90;;;;;;4989703;28;20026;-71
2022/04/06 02:18:59;;;;;;;25.57;10.50;;;9.80;99.90;;;;;;4988615;28;20026;-71
2022/04/06 02:21:25;;;;;;;22.47;11.53;;;9.70;99.90;;;;;;4988872;28;20038;-71
2022/04/06 02:23:50;;;;;;;19.67;10.00;;;9.80;99.90;;;;;;4990180;28;20894;-71
2022/04/06 02:26:16;;;;;;;19.97;10.23;;;9.70;99.90;;;;;;4990242;28;20054;-71
2022/04/06 02:28:41;;;;;;;22.27;10.33;;;9.60;99.90;;;;;;4989917;28;20105;-70
2022/04/06 02:31:07;;;;;;;23.63;10.13;;;9.80;99.90;;;;;;4990046;28;20073;-71
2022/04/06 02:33:32;;;;;;;23.47;10.73;;;9.70;99.90;;;;;;4989779;28;20032;-70
2022/04/06 02:35:58;;;;;;;23.40;11.70;;;9.70;99.90;;;;;;4990076;28;20364;-71
2022/04/06 02:38:23;;;;;;;20.33;9.97;;;9.60;99.90;;;;;;4990188;28;20036;-70
2022/04/06 02:40:49;;;;;;;21.97;9.23;;;9.70;99.90;;;;;;4989950;28;20019;-70
2022/04/06 02:43:14;;;;;;;21.63;9.73;;;9.70;99.90;;;;;;4990285;28;20030;-70
2022/04/06 02:45:40;;;;;;;16.67;8.50;;;9.70;99.90;;;;;;4989090;28;20089;-70
2022/04/06 02:48:06;;;;;;;19.87;7.93;;;9.70;99.90;;;;;;4989551;28;20027;-70
2022/04/06 02:50:32;;;;;;;19.57;8.40;;;9.60;99.90;;;;;;4989489;28;20034;-70
2022/04/06 02:52:58;;;;;;;26.63;8.70;;;9.70;99.90;;;;;;4989908;28;20031;-70
2022/04/06 02:55:23;;;;;;;17.20;7.83;;;9.60;99.90;;;;;;4989959;28;20367;-71
2022/04/06 02:57:49;;;;;;;18.27;8.97;;;;;;;;;;4972374;28;20092;-70
2022/04/06 03:00:15;;;;;;;19.83;8.63;;;9.60;99.90;;;;;;4989539;28;20030;-70
2022/04/06 03:02:46;;;;;;;16.90;9.27;;;9.70;99.90;;;;;;4988949;28;20126;-70
2022/04/06 03:05:12;;;;;;;17.50;7.57;;;9.60;99.90;;;;;;4982292;28;20121;-70
2022/04/06 03:07:41;;;;;;;23.43;8.50;;;9.50;99.90;;;;;;4982289;28;20443;-70
2022/04/06 03:10:08;;;;;;;17.97;8.00;;;9.30;99.90;;;;;;4988301;28;20219;-70
2022/04/06 03:12:33;;;;;;;14.03;7.30;;;9.50;99.90;;;;;;4981190;28;20571;-71
2022/04/06 03:14:59;;;;;;;22.30;7.20;;;9.70;99.90;;;;;;4982712;28;20102;-70
2022/04/06 03:17:25;;;;;;;14.23;6.87;;;9.50;99.90;;;;;;4982143;28;20093;-70
2022/04/06 03:19:50;;;;;;;17.13;7.10;;;9.50;99.90;;;;;;4971554;28;20035;-70
2022/04/06 03:22:17;;;;;;;19.63;6.63;;;9.50;99.90;;;;;;4989641;28;20090;-70
2022/04/06 03:24:47;;;;;;;11.90;6.07;;;9.60;99.90;;;;;;4989049;28;20023;-70
2022/04/06 03:27:13;;;;;;;10.30;5.67;;;9.60;99.90;;;;;;4989894;28;20034;-70
2022/04/06 03:29:40;;;;;;;13.50;6.53;;;9.50;99.90;;;;;;4988369;28;20030;-70
2022/04/06 03:32:07;;;;;;;17.40;7.00;;;9.50;99.90;;;;;;4986626;28;20551;-70
2022/04/06 03:34:32;;;;;;;10.33;5.43;;;9.40;99.90;;;;;;4988579;28;20077;-70
2022/04/06 03:36:58;;;;;;;10.53;4.87;;;9.50;99.90;;;;;;4989303;28;20387;-70
2022/04/06 03:39:23;;;;;;;13.37;5.67;;;9.50;99.90;;;;;;4989243;28;20437;-70
2022/04/06 03:41:49;;;;;;;16.50;5.47;;;9.50;99.90;;;;;;4989154;28;20030;-70
2022/04/06 03:44:14;;;;;;;14.23;5.40;;;9.40;99.90;;;;;;4985888;28;20360;-70
2022/04/06 03:46:40;;;;;;;8.50;4.50;;;9.50;99.90;;;;;;4988818;28;20042;-70
2022/04/06 03:49:05;;;;;;;13.70;4.77;;;9.30;99.90;;;;;;4989187;28;20199;-70
2022/04/06 03:51:31;;;;;;;12.60;4.97;;;;;;;;;;4971748;28;20033;-71
2022/04/06 03:53:57;;;;;;;14.83;4.00;;;9.20;99.90;;;;;;4989259;28;20425;-70
2022/04/06 03:56:23;;;;;;;9.70;4.13;;;;;;;;;;4989557;28;20029;-70
2022/04/06 03:58:49;;;;;;;10.20;3.97;;;9.20;99.90;;;;;;4988563;28;20065;-70
2022/04/06 04:01:15;;;;;;;10.00;3.90;;;9.10;99.90;;;;;;4988435;28;20058;-70
2022/04/06 04:03:40;;;;;;;13.80;3.70;;;9.00;99.90;;;;;;4983808;28;20026;-70
2022/04/06 04:06:09;;;;;;;12.33;4.07;;;9.20;99.90;;;;;;4988164;28;20042;-70
2022/04/06 04:08:35;;;;;;;10.23;3.93;;;;;;;;;;4988662;28;20027;-70
2022/04/06 04:11:00;;;;;;;10.33;4.03;;;9.10;99.90;;;;;;4989181;28;20077;-69
2022/04/06 04:13:26;;;;;;;13.07;3.90;;;9.50;99.90;;;;;;4988561;28;20503;-70
2022/04/06 04:15:51;;;;;;;14.17;3.50;;;9.10;99.90;;;;;;4988959;28;20101;-70
2022/04/06 04:18:17;;;;;;;9.33;3.83;;;9.20;99.90;;;;;;4989022;28;20031;-70
2022/04/06 04:20:45;;;;;;;11.53;3.40;;;;;;;;;;4988203;28;20132;-70
2022/04/06 04:23:13;;;;;;;7.87;3.50;;;9.20;99.90;;;;;;4989026;28;20117;-70
2022/04/06 04:25:39;;;;;;;9.07;3.07;;;9.50;99.90;;;;;;4986926;28;20081;-70
2022/04/06 04:28:05;;;;;;;8.93;3.43;;;;;;;;;;4991559;28;20048;-70
2022/04/06 04:30:31;;;;;;;8.07;3.47;;;;;;;;;;4991926;28;20026;-70
2022/04/06 04:32:57;;;;;;;10.57;3.77;;;9.20;99.90;;;;;;4990278;28;20114;-70
2022/04/06 04:35:23;;;;;;;9.17;3.00;;;;;;;;;;4992450;28;20153;-70
2022/04/06 04:37:49;;;;;;;10.47;3.03;;;9.10;99.90;;;;;;4992277;28;20057;-69
2022/04/06 04:40:20;;;;;;;7.93;3.20;;;9.10;99.90;;;;;;4992522;28;20340;-69
2022/04/06 04:42:46;;;;;;;10.93;3.53;;;9.20;99.90;;;;;;4991487;28;20034;-69
2022/04/06 04:45:12;;;;;;;8.33;3.40;;;9.20;99.90;;;;;;4992264;28;20030;-69
2022/04/06 04:47:39;;;;;;;9.67;3.63;;;9.20;99.90;;;;;;4991638;28;20046;-70
2022/04/06 04:50:06;;;;;;;9.87;3.13;;;9.10;99.90;;;;;;4992343;28;20022;-69
2022/04/06 04:52:31;;;;;;;11.43;3.40;;;9.30;99.90;;;;;;4991675;28;20034;-69
2022/04/06 04:54:57;;;;;;;11.10;3.20;;;;;;;;;;4992073;28;20443;-69
2022/04/06 04:57:23;;;;;;;10.33;3.10;;;;;;;;;;4991584;28;20026;-69
2022/04/06 04:59:52;;;;;;;7.43;3.50;;;;;;;;;;4989791;28;20061;-69
2022/04/06 05:02:18;;;;;;;13.57;4.00;;;;;;;;;;4987851;28;20034;-69
2022/04/06 05:04:44;;;;;;;10.63;3.10;;;9.10;99.90;;;;;;4991382;28;20030;-69
2022/04/06 05:07:10;;;;;;;11.63;3.30;;;9.10;99.90;;;;;;4992132;28;20042;-69
2022/04/06 05:09:35;;;;;;;11.63;3.97;;;;;;;;;;4990176;28;20449;-69
2022/04/06 05:12:01;;;;;;;10.70;3.97;;;9.10;99.90;;;;;;4974301;28;20121;-69
2022/04/06 05:14:27;;;;;;;15.53;4.13;;;;;;;;;;4990764;28;20030;-71
2022/04/06 05:16:53;;;;;;;14.33;3.87;;;9.10;99.90;;;;;;4974436;28;20027;-70
2022/04/06 05:19:18;;;;;;;8.80;3.60;;;9.10;99.90;;;;;;4989237;28;20034;-69
2022/04/06 05:21:44;;;;;;;13.83;4.70;;;9.10;99.90;;;;;;4988162;28;20053;-69
2022/04/06 05:24:09;;;;;;;10.50;4.40;;;9.10;99.90;;;;;;4991875;28;20117;-69
2022/04/06 05:26:35;;;;;;;9.33;4.33;;;;;;;;;;4990412;28;20397;-69
2022/04/06 05:29:02;;;;;;;13.37;5.77;;;9.10;99.90;;;;;;4991450;28;20102;-69
2022/04/06 05:31:30;;;;;;;10.10;4.67;;;9.20;99.90;;;;;;4973672;28;20450;-70
2022/04/06 05:33:55;;;;;;;12.70;4.20;;;9.20;99.90;;;;;;4991172;28;20023;-70
2022/04/06 05:36:22;;;;;;;18.30;4.57;;;9.20;99.90;;;;;;4991307;28;20033;-70
2022/04/06 05:38:48;;;;;;;13.57;4.63;;;;;;;;;;4989770;28;20093;-70
2022/04/06 05:41:14;;;;;;;5.50;3.40;;;9.40;99.90;;;;;;4973816;28;20157;-70
2022/04/06 05:43:39;;;;;;;8.43;3.73;;;9.10;99.90;;;;;;4990364;28;20026;-70
2022/04/06 05:46:05;;;;;;;12.33;4.03;;;;;;;;;;4990796;28;20033;-70
2022/04/06 05:48:31;;;;;;;13.33;4.40;;;;;;;;;;4990683;28;20865;-70
2022/04/06 05:50:57;;;;;;;13.27;4.67;;;9.50;99.90;;;;;;4982359;28;20022;-70
2022/04/06 05:53:23;;;;;;;11.30;4.13;;;;;;;;;;4990907;28;20026;-71
2022/04/06 05:55:50;;;;;;;12.93;4.20;;;;;;;;;;4990169;28;20025;-70
2022/04/06 05:58:15;;;;;;;7.90;3.60;;;9.30;99.90;;;;;;4990876;28;20030;-70
2022/04/06 06:00:41;;;;;;;11.33;4.70;;;9.20;99.90;;;;;;4990398;28;20030;-69
2022/04/06 06:03:06;;;;;;;13.70;4.37;;;9.40;99.90;;;;;;4991044;28;20038;-70
2022/04/06 06:05:32;;;;;;;14.63;6.27;;;;;;;;;;4990242;28;20340;-70
2022/04/06 06:07:58;;;;;;;12.37;4.33;;;9.00;99.90;;;;;;4990341;28;20464;-70
2022/04/06 06:10:24;;;;;;;13.00;5.23;;;;;;;;;;4990602;28;20022;-70
2022/04/06 06:12:49;;;;;;;20.13;5.57;;;9.40;99.90;;;;;;4990176;28;20412;-70
2022/04/06 06:15:15;;;;;;;12.33;5.20;;;9.50;99.90;;;;;;4990699;28;20476;-70
2022/04/06 06:17:41;;;;;;;10.87;6.00;;;9.70;99.90;;;;;;4987119;28;20022;-70
2022/04/06 06:20:07;;;;;;;10.60;5.20;;;9.50;99.90;;;;;;4990423;28;20022;-70
2022/04/06 06:22:33;;;;;;;14.90;5.47;;;9.50;99.90;;;;;;4989229;28;20019;-70
2022/04/06 06:25:00;;;;;;;13.13;5.23;;;;;;;;;;4990224;28;20054;-70
2022/04/06 06:27:25;;;;;;;13.03;5.13;;;9.80;99.90;;;;;;4989647;28;20538;-70
2022/04/06 06:29:51;;;;;;;21.00;7.27;;;9.90;99.90;;;;;;4990051;28;20113;-70
2022/04/06 06:32:16;;;;;;;15.60;6.50;;;9.80;99.90;;;;;;4988948;28;20034;-71
2022/04/06 06:34:42;;;;;;;15.07;6.17;;;9.80;99.90;;;;;;4989125;28;20106;-70
2022/04/06 06:37:07;;;;;;;11.13;5.17;;;9.90;99.90;;;;;;4986069;28;20045;-71
2022/04/06 06:39:33;;;;;;;12.63;6.07;;;9.90;99.90;;;;;;4988741;28;20472;-71
2022/04/06 06:41:58;;;;;;;13.17;6.10;;;9.90;99.90;;;;;;4989892;28;20030;-70
2022/04/06 06:44:24;;;;;;;10.43;5.87;;;9.90;99.90;;;;;;4990018;28;20468;-70
2022/04/06 06:46:49;;;;;;;15.57;7.33;;;9.90;99.90;;;;;;4986336;28;20034;-70
2022/04/06 06:49:16;;;;;;;16.13;6.57;;;;;;;;;;4988483;28;20460;-70
2022/04/06 06:51:42;;;;;;;13.97;5.87;;;9.80;99.90;;;;;;4986871;28;20118;-69
2022/04/06 06:54:07;;;;;;;20.03;6.67;;;10.00;99.90;;;;;;4989539;28;20085;-69
2022/04/06 06:56:33;;;;;;;18.23;7.77;;;9.90;99.90;;;;;;4984158;28;20031;-70
2022/04/06 06:58:59;;;;;;;14.30;5.20;;;9.80;99.90;;;;;;4988030;28;20027;-69
2022/04/06 07:01:24;;;;;;;12.10;5.50;;;10.00;99.90;;;;;;4989495;28;20026;-70
2022/04/06 07:03:50;;;;;;;13.40;5.70;;;;;;;;;;4989116;28;20026;-69
2022/04/06 07:06:16;;;;;;;10.60;4.63;;;10.00;99.90;;;;;;4989364;28;20471;-70
2022/04/06 07:08:42;;;;;;;9.93;4.50;;;;;;;;;;4988761;28;20026;-70
2022/04/06 07:11:08;;;;;;;9.73;4.13;;;9.90;99.90;;;;;;4984605;28;20023;-69
2022/04/06 07:13:34;;;;;;;14.57;5.03;;;10.00;99.90;;;;;;4987836;28;20034;-69
2022/04/06 07:16:00;;;;;;;9.27;3.90;;;10.50;99.90;;;;;;4989512;28;20015;-69
2022/04/06 07:18:26;;;;;;;13.40;3.57;;;9.70;99.90;;;;;;4988445;28;20080;-70
2022/04/06 07:20:52;;;;;;;15.37;3.77;;;10.20;99.90;;;;;;4981169;28;20138;-69
2022/04/06 07:23:17;;;;;;;8.43;3.70;;;10.10;99.90;;;;;;4988549;28;20034;-69
2022/04/06 07:25:44;;;;;;;7.27;3.53;;;10.00;99.90;;;;;;4987928;28;20471;-70
2022/04/06 07:28:09;;;;;;;13.67;3.87;;;10.00;99.90;;;;;;4985204;28;20026;-69
2022/04/06 07:30:35;;;;;;;8.70;3.23;;;10.20;99.90;;;;;;4998490;28;20027;-69
2022/04/06 07:33:01;;;;;;;10.47;2.43;;;10.20;99.90;;;;;;4989209;28;20097;-71
2022/04/06 07:35:27;;;;;;;6.97;2.27;;;10.10;99.90;;;;;;4988307;28;20018;-71
2022/04/06 07:37:52;;;;;;;10.00;2.60;;;9.70;99.90;;;;;;4988848;28;20034;-71
2022/04/06 07:40:22;;;;;;;7.87;2.07;;;10.20;99.90;;;;;;4988729;28;20026;-71
2022/04/06 07:42:51;;;;;;;8.30;2.50;;;10.10;99.90;;;;;;4987489;28;20048;-71
2022/04/06 07:45:18;;;;;;;6.33;2.20;;;10.10;99.90;;;;;;4989073;28;20396;-71
2022/04/06 07:47:51;;;;;;;6.57;1.63;;;10.20;99.90;;;;;;4988405;28;20403;-71
2022/04/06 07:50:19;;;;;;;7.37;2.47;;;10.20;99.90;;;;;;4985261;28;20018;-72
2022/04/06 07:52:45;;;;;;;3.53;1.87;;;10.10;99.90;;;;;;4988396;28;20038;-71
2022/04/06 07:55:11;;;;;;;6.43;1.93;;;10.20;99.90;;;;;;4989214;28;20064;-71
2022/04/06 07:57:37;;;;;;;6.20;2.03;;;10.20;99.90;;;;;;4982364;28;20022;-71
2022/04/06 08:00:13;;;;;;;9.17;2.67;;;10.40;99.90;;;;;;4973023;28;20039;-70
2022/04/06 08:02:38;;;;;;;9.17;1.90;;;10.40;99.90;;;;;;4976441;28;20464;-70
2022/04/06 08:05:05;;;;;;;5.50;1.80;;;10.40;99.90;;;;;;4992497;28;20024;-69
2022/04/06 08:07:31;;;;;;;4.57;1.73;;;10.50;99.90;;;;;;4992644;28;20046;-69
2022/04/06 08:09:57;;;;;;;10.07;1.70;;;10.50;99.90;;;;;;4993061;28;20450;-69
2022/04/06 08:12:22;;;;;;;4.70;2.63;;;10.70;99.90;;;;;;4992987;28;20026;-69
2022/04/06 08:14:50;;;;;;;9.27;2.53;;;10.50;99.90;;;;;;4988262;28;20077;-70
2022/04/06 08:17:15;;;;;;;7.07;2.20;;;10.50;99.90;;;;;;4973465;28;20122;-70
2022/04/06 08:19:41;;;;;;;7.93;2.30;;;10.70;99.90;;;;;;4975181;28;20109;-69
2022/04/06 08:22:07;;;;;;;7.43;1.97;;;10.60;99.90;;;;;;4991640;28;20111;-71
2022/04/06 08:24:33;;;;;;;4.40;1.97;;;;;;;;;;4990259;28;20068;-72
2022/04/06 08:26:59;;;;;;;9.33;2.33;;;10.80;99.90;;;;;;4992192;28;20034;-71
2022/04/06 08:29:25;;;;;;;7.07;2.47;;;10.60;99.90;;;;;;4992413;28;20497;-69
2022/04/06 08:31:50;;;;;;;6.57;2.80;;;10.60;99.90;;;;;;4992031;28;20036;-69
2022/04/06 08:34:16;;;;;;;11.83;2.83;;;10.80;99.90;;;;;;4983118;28;20472;-69
2022/04/06 08:36:43;;;;;;;8.50;1.97;;;10.80;99.90;;;;;;4972234;28;20039;-69
2022/04/06 08:39:09;;;;;;;10.37;2.43;;;10.50;99.90;;;;;;4972858;28;20023;-69
2022/04/06 08:41:35;;;;;;;11.47;2.20;;;10.50;99.90;;;;;;4970921;28;20031;-72
2022/04/06 08:44:01;;;;;;;7.10;2.30;;;10.60;99.90;;;;;;4972770;28;20033;-69
2022/04/06 08:46:34;;;;;;;11.07;3.13;;;10.60;99.90;;;;;;4972517;28;20070;-69
2022/04/06 08:49:01;;;;;;;4.23;2.57;;;10.50;99.90;;;;;;4972365;28;20031;-71
2022/04/06 08:51:28;;;;;;;8.70;3.03;;;10.60;99.90;;;;;;4966653;28;20778;-70
2022/04/06 08:53:54;;;;;;;10.57;3.77;;;10.80;99.90;;;;;;4987646;28;20039;-70
2022/04/06 08:56:21;;;;;;;6.23;3.07;;;10.60;99.90;;;;;;4992238;28;20108;-70
2022/04/06 08:58:47;;;;;;;10.13;3.60;;;10.60;99.90;;;;;;4991369;28;20072;-70
2022/04/06 09:01:12;;;;;;;4.80;3.17;;;10.60;99.90;;;;;;4991935;28;20057;-70
2022/04/06 09:03:38;;;;;;;10.40;4.23;;;10.70;99.90;;;;;;4989190;28;20056;-70
2022/04/06 09:06:11;;;;;;;12.73;4.47;;;10.50;99.90;;;;;;4990368;28;20046;-70
2022/04/06 09:08:45;;;;;;;9.90;4.10;;;10.40;99.90;;;;;;4991441;28;20053;-70
2022/04/06 09:11:12;;;;;;;8.43;4.65;;;10.50;99.90;;;;;;4991830;28;20394;-70
2022/04/06 09:13:39;;;;;;;8.13;4.43;;;10.60;99.90;;;;;;4979502;28;20034;-70
2022/04/06 09:16:08;;;;;;;12.03;4.37;;;10.30;99.90;;;;;;4954976;28;20038;-70
2022/04/06 09:18:43;;;;;;;9.50;5.07;;;10.50;99.90;;;;;;4971247;28;20023;-70
2022/04/06 09:21:10;;;;;;;10.83;4.73;;;10.20;99.90;;;;;;4972289;28;20026;-70
2022/04/06 09:23:36;;;;;;;17.70;5.77;;;10.20;99.90;;;;;;4976603;28;20476;-70
2022/04/06 09:26:10;;;;;;;9.87;5.17;;;10.10;99.90;;;;;;4985872;28;20057;-70
2022/04/06 09:28:40;;;;;;;9.73;5.27;;;9.80;99.90;;;;;;4971470;28;20062;-70
2022/04/06 09:31:06;;;;;;;9.07;5.30;;;10.10;99.90;;;;;;4980349;28;20101;-70
2022/04/06 09:33:32;;;;;;;14.30;6.37;;;10.00;99.90;;;;;;4990661;28;20118;-70
2022/04/06 09:35:58;;;;;;;6.70;5.43;;;10.00;99.90;;;;;;4991588;28;20034;-70
2022/04/06 09:38:32;;;;;;;8.77;5.90;;;9.90;99.90;;;;;;4991091;28;20065;-70
2022/04/06 09:41:06;;;;;;;12.33;6.13;;;9.80;99.90;;;;;;4990050;28;20026;-70
2022/04/06 09:43:33;;;;;;;13.75;6.30;;;10.20;99.90;;;;;;4991056;28;20018;-70
2022/04/06 09:49:03;;;;;;;14.67;5.90;;;10.10;99.90;;;;;;4987758;28;20113;-70
2022/04/06 09:51:29;;;;;;;9.47;6.30;;;9.90;99.90;;;;;;4979046;28;20046;-69
2022/04/06 09:53:55;;;;;;;11.00;7.33;;;9.90;99.90;;;;;;4991023;28;20141;-70
2022/04/06 09:56:21;;;;;;;11.03;6.00;;;10.00;99.90;;;;;;4991284;28;20050;-70
2022/04/06 09:58:47;;;;;;;9.67;6.73;;;9.60;99.90;;;;;;4990746;28;20489;-70
2022/04/06 10:01:14;;;;;;;9.57;5.73;;;10.40;99.90;;;;;;4982197;28;20058;-69
2022/04/06 10:03:48;;;;;;;13.63;6.80;;;10.10;99.90;;;;;;4972061;28;20034;-69
2022/04/06 10:06:14;;;;;;;7.73;5.87;;;10.20;99.90;;;;;;4971713;28;20035;-69
2022/04/06 10:08:42;;;;;;;13.10;6.97;;;10.40;99.90;;;;;;4970921;28;20484;-70
2022/04/06 10:11:08;;;;;;;11.90;6.67;;;10.20;99.90;;;;;;4971534;28;20106;-69
2022/04/06 10:13:33;;;;;;;13.77;8.23;;;10.40;99.90;;;;;;4980275;28;20018;-69
2022/04/06 10:15:59;;;;;;;10.70;6.57;;;10.30;99.90;;;;;;4990467;28;20022;-70
2022/04/06 10:18:27;;;;;;;8.93;7.43;;;10.20;99.90;;;;;;4990491;28;20029;-69
2022/04/06 10:21:18;;;;;;;12.90;6.97;;;10.40;99.90;;;;;;4989238;28;20037;-69
2022/04/06 10:24:03;;;;;;;19.37;7.77;;;10.20;99.90;;;;;;4990072;28;20023;-69
2022/04/06 10:26:46;;;;;;;11.80;6.70;;;10.30;99.90;;;;;;4989753;28;20073;-69
2022/04/06 10:29:12;;;;;;;12.23;7.47;;;10.00;99.90;;;;;;4976591;28;20038;-69
2022/04/06 10:31:38;;;;;;;15.13;7.40;;;9.70;99.90;;;;;;4970510;28;20047;-69
2022/04/06 10:34:22;;;;;;;10.07;6.90;;;10.20;99.90;;;;;;4971093;28;20033;-69
2022/04/06 10:37:15;;;;;;;17.52;7.43;;;10.10;99.90;;;;;;4970626;28;20038;-69
2022/04/06 10:39:57;;;;;;;15.10;8.13;;;9.90;99.90;;;;;;4970311;28;20031;-69
2022/04/06 10:42:31;;;;;;;12.07;7.27;;;10.10;99.90;;;;;;4953065;28;20106;-69
2022/04/06 10:44:57;;;;;;;9.43;7.40;;;9.50;99.90;;;;;;4970568;28;20095;-69
2022/04/06 10:47:26;;;;;;;13.70;7.40;;;;;;;;;;4971216;28;20176;-69
2022/04/06 10:50:10;;;;;;;13.63;8.33;;;10.00;99.90;;;;;;4989806;28;20036;-70
2022/04/06 10:52:36;;;;;;;;;;;10.10;99.90;;;;;;4989826;28;20076;-69
2022/04/06 10:55:14;;;;;;;11.87;7.37;;;9.90;99.90;;;;;;4989771;28;19905;-69
2022/04/06 10:58:02;;;;;;;15.83;8.30;;;9.90;99.90;;;;;;4989690;28;20026;-70
2022/04/06 11:00:30;;;;;;;13.70;8.43;;;9.90;99.90;;;;;;4989117;28;20038;-70
2022/04/06 11:03:16;;;;;;;13.90;9.07;;;10.00;99.90;;;;;;4989473;28;20042;-69
2022/04/06 11:05:46;;;;;;;12.73;7.60;;;9.90;99.90;;;;;;4969839;28;20030;-69
2022/04/06 11:11:40;;;;;;;18.37;8.07;;;10.20;99.90;;;;;;4969991;28;20085;-70
2022/04/06 11:14:06;;;;;;;10.93;8.77;;;10.30;99.90;;;;;;4961438;28;20038;-70
2022/04/06 11:16:45;;;;;;;13.60;10.37;;;10.30;99.90;;;;;;4981534;28;20053;-69
2022/04/06 11:19:16;;;;;;;13.43;9.23;;;10.40;99.90;;;;;;4952895;28;20063;-70
2022/04/06 11:21:52;;;;;;;13.63;8.80;;;10.20;99.90;;;;;;4981521;28;20050;-70
2022/04/06 11:24:27;;;;;;;10.87;9.70;;;10.40;99.90;;;;;;4985404;28;20126;-70
2022/04/06 11:26:52;;;;;;;15.47;9.40;;;10.40;99.90;;;;;;4972708;28;20050;-70
2022/04/06 11:29:18;;;;;;;12.63;9.77;;;10.50;99.90;;;;;;4973158;28;20349;-70
2022/04/06 11:31:56;;;;;;;10.17;9.17;;;10.60;99.90;;;;;;4988339;28;20553;-70
2022/04/06 11:34:38;;;;;;;11.83;8.03;;;10.80;99.90;;;;;;4986000;28;20037;-69
2022/04/06 11:37:06;;;;;;;13.63;9.60;;;10.80;99.90;;;;;;4991093;28;20022;-71
2022/04/06 11:39:32;;;;;;;10.30;8.43;;;11.00;99.90;;;;;;4993206;28;20447;-70
2022/04/06 11:42:02;;;;;;;10.97;8.40;;;11.00;99.90;;;;;;4993050;28;20071;-70
2022/04/06 11:44:28;;;;;;;14.67;8.37;;;10.80;99.90;;;;;;4993388;28;20026;-70
2022/04/06 11:46:55;;;;;;;13.17;7.83;;;10.70;99.90;;;;;;4983052;28;20069;-70
2022/04/06 11:49:24;;;;;;;12.33;7.73;;;10.90;99.90;;;;;;4973895;28;20022;-70
2022/04/06 11:51:51;;;;;;;11.00;7.37;;;10.80;99.90;;;;;;4972314;28;20165;-70
2022/04/06 11:54:17;;;;;;;11.27;7.27;;;10.80;99.90;;;;;;4972953;28;20057;-70
2022/04/06 11:56:43;;;;;;;10.67;6.70;;;10.80;99.90;;;;;;4971753;28;20476;-70
2022/04/06 11:59:16;;;;;;;8.83;6.60;;;10.80;99.90;;;;;;4974440;28;20070;-70
2022/04/06 12:01:42;;;;;;;11.63;7.18;;;10.70;99.90;;;;;;4972615;28;20019;-70
2022/04/06 12:04:16;;;;;;;8.47;6.47;;;10.80;99.90;;;;;;4973334;28;20123;-71
2022/04/06 12:06:42;;;;;;;11.00;6.22;;;10.80;99.90;;;;;;4973099;28;20031;-70
2022/04/06 12:09:08;;;;;;;12.83;6.90;;;10.60;99.90;;;;;;4989513;28;20038;-70
2022/04/06 12:11:36;;;;;;;11.43;6.73;;;10.80;99.90;;;;;;4992106;28;20049;-71
2022/04/06 12:14:02;;;;;;;7.13;5.93;;;10.90;99.90;;;;;;4993251;28;20467;-70
2022/04/06 12:16:29;;;;;;;13.80;6.13;;;11.00;99.90;;;;;;4991218;28;20053;-71
2022/04/06 12:18:54;;;;;;;7.47;5.93;;;11.00;99.90;;;;;;4993186;28;20050;-70
2022/04/06 12:21:25;;;;;;;10.63;6.67;;;10.90;99.90;;;;;;4992853;28;20073;-70
2022/04/06 12:23:52;;;;;;;9.93;6.80;;;11.10;99.90;;;;;;4974907;28;20523;-70
2022/04/06 12:26:19;;;;;;;9.23;6.43;;;10.90;99.90;;;;;;4972755;28;20047;-72
2022/04/06 12:28:49;;;;;;;9.37;6.10;;;11.10;99.90;;;;;;4972817;28;20027;-72
2022/04/06 12:31:14;;;;;;;8.93;6.00;;;11.20;99.90;;;;;;4973311;28;20034;-70
2022/04/06 12:33:50;;;;;;;9.77;6.67;;;11.50;99.90;;;;;;4972633;28;20034;-70
2022/04/06 12:36:26;;;;;;;14.13;8.13;;;11.30;99.90;;;;;;4973271;28;20478;-70
2022/04/06 12:39:08;;;;;;;12.13;7.73;;;11.50;99.90;;;;;;4989777;28;20022;-70
2022/04/06 12:42:02;;;;;;;12.50;6.30;;;11.30;99.90;;;;;;4991477;28;20105;-70
2022/04/06 12:44:29;;;;;;;13.73;5.03;;;11.40;99.90;;;;;;4974305;28;20104;-70
2022/04/06 12:46:56;;;;;;;10.47;5.53;;;11.40;99.90;;;;;;4992232;28;20121;-70
2022/04/06 12:49:32;;;;;;;8.23;5.13;;;11.50;99.90;;;;;;4992097;28;20463;-70
2022/04/06 12:52:20;;;;;;;10.07;5.53;;;11.60;99.90;;;;;;4990070;28;20121;-70
2022/04/06 12:54:51;;;;;;;10.63;4.93;;;11.80;99.90;;;;;;4970335;28;20035;-70
2022/04/06 12:57:26;;;;;;;9.10;5.30;;;11.70;99.90;;;;;;4973127;28;20027;-70
2022/04/06 12:59:59;;;;;;;6.27;4.80;;;11.70;99.90;;;;;;4972621;28;20042;-70
2022/04/06 13:02:24;;;;;;;5.97;5.10;;;11.40;99.90;;;;;;4972490;28;20127;-70
2022/04/06 13:04:52;;;;;;;7.07;5.27;;;11.40;99.90;;;;;;4972537;28;20150;-70